Time;durP1;ratioP1;P1;durP2;ratioP2;P2;SDS_P1;SDS_P2;PMS_P1;PMS_P2;Temp;Humidity;BMP_temperature;BMP_pressure;BME280_temperature;BME280_humidity;BME280_pressure;Samples;Min_cycle;Max_cycle;Signal;HPM_P1;HPM_P2
2023/10/12 00:02:21;;;;;;;9.93;5.22;;;;;;;17.78;65.22;99764.91;5035823;28;20202;-64
2023/10/12 00:04:53;;;;;;;11.52;5.55;;;;;;;17.77;65.22;99758.84;5031714;28;20206;-66
2023/10/12 00:07:33;;;;;;;6.55;5.15;;;;;;;17.78;65.05;99754.47;5034232;28;20199;-66
2023/10/12 00:10:21;;;;;;;11.38;5.78;;;;;;;17.77;65.07;99752.78;5037830;28;20205;-67
2023/10/12 00:12:54;;;;;;;11.82;5.75;;;;;;;17.76;65.30;99744.13;5035434;28;20199;-66
2023/10/12 00:15:24;;;;;;;22.35;5.78;;;;;;;17.74;65.12;99756.34;5034424;28;20199;-63
2023/10/12 00:17:55;;;;;;;13.77;5.30;;;;;;;17.73;65.33;99738.19;5032455;28;20671;-66
2023/10/12 00:20:31;;;;;;;19.05;6.30;;;;;;;17.77;65.03;99743.22;5029837;28;20285;-64
2023/10/12 00:23:02;;;;;;;11.95;5.15;;;;;;;17.77;64.99;99742.38;5031596;28;20276;-69
2023/10/12 00:25:34;;;;;;;10.88;5.50;;;;;;;17.75;65.01;99738.97;5033957;28;20227;-65
2023/10/12 00:28:03;;;;;;;8.25;4.93;;;;;;;17.77;64.72;99730.19;5032909;28;20976;-65
2023/10/12 00:30:33;;;;;;;7.97;5.20;;;;;;;17.73;64.89;99720.78;5031922;28;20325;-64
2023/10/12 00:33:01;;;;;;;9.43;5.82;;;;;;;17.77;64.93;99729.34;5024933;28;20297;-65
2023/10/12 00:35:32;;;;;;;12.20;5.53;;;;;;;17.76;64.87;99728.50;5030251;28;20530;-66
2023/10/12 00:38:10;;;;;;;11.73;6.00;;;;;;;17.75;64.81;99726.81;5033118;28;20213;-64
2023/10/12 00:40:39;;;;;;;10.82;5.38;;;;;;;17.74;64.80;99722.47;5032897;28;20214;-64
2023/10/12 00:43:08;;;;;;;13.77;5.55;;;;;;;17.73;64.61;99720.78;5024867;28;20203;-67
2023/10/12 00:45:35;;;;;;;12.63;5.57;;;;;;;17.70;64.91;99715.72;5033217;28;20254;-68
2023/10/12 00:48:07;;;;;;;10.60;6.07;;;;;;;17.68;65.18;99709.75;5032939;28;20670;-66
2023/10/12 00:50:36;;;;;;;10.73;5.25;;;;;;;17.67;64.96;99715.84;5029744;28;20697;-65
2023/10/12 00:53:22;;;;;;;10.35;5.68;;;;;;;17.69;65.02;99703.59;5032596;28;20241;-66
2023/10/12 00:55:53;;;;;;;11.25;5.55;;;;;;;17.70;65.11;99705.28;5032005;28;20202;-68
2023/10/12 00:58:24;;;;;;;10.48;5.78;;;;;;;17.67;65.06;99704.59;5032864;28;20739;-65
2023/10/12 01:00:52;;;;;;;8.23;4.72;;;;;;;17.68;65.00;99699.31;5032598;28;20203;-64
2023/10/12 01:03:35;;;;;;;9.43;5.03;;;;;;;17.67;65.12;99702.81;5031881;28;20198;-67
2023/10/12 01:06:20;;;;;;;8.60;5.68;;;;;;;17.68;65.19;99708.91;5032201;28;20582;-64
2023/10/12 01:08:49;;;;;;;18.13;6.00;;;;;;;17.67;65.22;99695.00;5017082;28;20230;-65
2023/10/12 01:11:20;;;;;;;8.95;4.93;;;;;;;17.67;65.21;99694.16;5026835;28;20206;-64
2023/10/12 01:14:03;;;;;;;9.82;5.57;;;;;;;17.63;65.37;99688.25;5033164;28;20230;-64
2023/10/12 01:16:44;;;;;;;15.38;5.30;;;;;;;17.60;65.46;99691.03;5033528;28;20201;-65
2023/10/12 01:19:20;;;;;;;8.90;4.93;;;;;;;17.59;65.55;99691.91;5027055;28;20293;-66
2023/10/12 01:21:52;;;;;;;10.48;5.15;;;;;;;17.57;65.60;99683.34;5028382;28;20207;-66
2023/10/12 01:24:29;;;;;;;10.63;5.28;;;;;;;17.57;65.76;99693.75;5030243;28;20213;-64
2023/10/12 01:26:59;;;;;;;10.35;5.20;;;;;;;17.49;65.71;99682.81;5032796;28;20215;-64
2023/10/12 01:29:28;;;;;;;8.35;4.65;;;;;;;17.52;66.04;99687.91;5031432;28;20202;-63
2023/10/12 01:32:20;;;;;;;6.60;5.07;;;;;;;17.50;65.84;99681.94;5032741;28;20207;-64
2023/10/12 01:34:52;;;;;;;10.98;5.38;;;;;;;17.47;66.00;99676.84;5033097;28;20207;-64
2023/10/12 01:37:23;;;;;;;7.80;4.88;;;;;;;17.49;65.93;99678.50;5032765;28;20209;-74
2023/10/12 01:40:11;;;;;;;8.23;5.55;;;;;;;17.50;65.79;99684.53;5034877;28;20248;-72
2023/10/12 01:42:49;;;;;;;10.20;4.82;;;;;;;17.50;65.72;99674.97;5027022;28;20241;-73
2023/10/12 01:45:31;;;;;;;11.60;5.28;;;;;;;17.53;65.65;99666.16;5031488;28;20236;-72
2023/10/12 01:48:07;;;;;;;9.13;5.30;;;;;;;17.54;65.55;99666.09;5031032;28;20215;-73
2023/10/12 01:50:37;;;;;;;6.90;4.57;;;;;;;17.54;65.50;99657.44;5033435;28;20574;-73
2023/10/12 01:53:22;;;;;;;12.02;5.30;;;;;;;17.53;65.49;99650.53;5034935;28;20321;-73
2023/10/12 01:55:52;;;;;;;11.70;5.57;;;;;;;17.56;65.52;99658.19;5033116;28;20202;-77
2023/10/12 01:58:20;;;;;;;14.35;5.00;;;;;;;17.56;65.29;99661.66;5032957;28;20279;-76
2023/10/12 02:00:52;;;;;;;9.85;4.70;;;;;;;17.57;65.36;99657.28;5032007;28;20289;-73
2023/10/12 02:03:26;;;;;;;8.38;4.78;;;;;;;17.59;65.21;99647.63;5034932;28;20202;-74
2023/10/12 02:06:05;;;;;;;11.07;5.28;;;;;;;17.60;65.15;99649.34;5034060;28;20238;-74
2023/10/12 02:08:39;;;;;;;9.80;4.60;;;;;;;17.62;64.75;99648.31;5034466;28;20258;-74
2023/10/12 02:11:11;;;;;;;10.82;4.18;;;;;;;17.67;64.76;99648.09;5033985;28;20669;-70
2023/10/12 02:13:41;;;;;;;10.40;5.20;;;;;;;17.67;64.72;99645.50;5028358;28;20199;-74
2023/10/12 02:16:12;;;;;;;10.45;4.00;;;;;;;17.70;64.54;99647.13;5032658;28;20198;-77
2023/10/12 02:18:42;;;;;;;12.90;4.70;;;;;;;17.73;64.46;99652.19;5032855;28;20215;-74
2023/10/12 02:21:11;;;;;;;11.57;5.03;;;;;;;17.74;64.59;99664.28;5034716;28;20210;-73
2023/10/12 02:23:54;;;;;;;10.93;4.68;;;;;;;17.75;64.52;99646.03;5035010;28;20214;-77
2023/10/12 02:26:34;;;;;;;13.85;5.22;;;;;;;17.76;64.31;99647.72;5030641;28;20218;-75
2023/10/12 02:29:11;;;;;;;11.13;5.15;;;;;;;17.76;64.62;99649.47;5023444;28;20623;-74
2023/10/12 02:31:45;;;;;;;12.15;5.07;;;;;;;17.78;64.45;99652.84;5033146;28;20281;-70
2023/10/12 02:34:16;;;;;;;7.90;4.68;;;;;;;17.78;64.25;99651.06;5030820;28;20202;-74
2023/10/12 02:37:00;;;;;;;12.10;5.07;;;;;;;17.80;64.30;99644.03;5031936;28;20658;-75
2023/10/12 02:39:31;;;;;;;11.10;5.22;;;;;;;17.81;64.26;99637.06;5032595;28;20199;-74
2023/10/12 02:42:11;;;;;;;9.05;4.13;;;;;;;17.80;64.14;99633.63;5029300;28;20203;-74
2023/10/12 02:44:43;;;;;;;8.40;4.97;;;;;;;17.82;64.25;99637.00;5032105;28;20558;-74
2023/10/12 02:47:17;;;;;;;12.88;4.82;;;;;;;17.83;64.18;99643.91;5031633;28;20218;-73
2023/10/12 02:49:46;;;;;;;10.23;4.78;;;;;;;17.85;64.00;99638.59;5024252;28;20276;-66
2023/10/12 02:52:16;;;;;;;8.88;4.57;;;;;;;17.88;63.81;99633.25;5038026;28;20317;-65
2023/10/12 02:54:50;;;;;;;7.80;4.32;;;;;;;17.91;63.50;99634.88;5029412;28;20213;-65
2023/10/12 02:57:22;;;;;;;9.98;4.97;;;;;;;17.97;63.32;99639.78;5023551;28;20702;-66
2023/10/12 02:59:58;;;;;;;9.23;4.75;;;;;;;17.99;63.22;99640.56;5031070;28;20325;-64
2023/10/12 03:02:33;;;;;;;8.85;3.80;;;;;;;18.02;63.18;99643.00;5031330;28;20711;-65
2023/10/12 03:05:06;;;;;;;6.28;4.30;;;;;;;18.06;62.93;99639.34;5029877;28;20197;-66
2023/10/12 03:07:37;;;;;;;8.23;3.88;;;;;;;18.07;62.80;99623.59;5026783;28;20249;-66
2023/10/12 03:10:17;;;;;;;6.55;4.43;;;;;;;18.09;62.84;99628.75;5030771;28;20734;-65
2023/10/12 03:12:44;;;;;;;9.32;4.50;;;;;;;18.10;62.74;99627.84;5028916;28;20217;-65
2023/10/12 03:15:13;;;;;;;8.48;4.80;;;;;;;18.12;62.84;99639.03;5030476;28;20558;-64
2023/10/12 03:17:52;;;;;;;8.32;4.18;;;;;;;18.11;62.64;99626.91;5030158;28;20217;-66
2023/10/12 03:20:22;;;;;;;11.57;4.47;;;;;;;18.14;62.55;99615.50;5030075;28;20214;-66
2023/10/12 03:22:53;;;;;;;10.45;4.25;;;;;;;18.15;62.79;99619.78;5028407;28;20214;-65
2023/10/12 03:25:37;;;;;;;11.32;4.38;;;;;;;18.16;62.54;99604.06;5026521;28;20202;-63
2023/10/12 03:28:12;;;;;;;7.05;3.83;;;;;;;18.18;62.42;99623.06;5029176;28;20317;-65
2023/10/12 03:30:52;;;;;;;7.55;4.32;;;;;;;18.18;62.54;99617.03;5030980;28;20632;-65
2023/10/12 03:33:27;;;;;;;9.90;4.55;;;;;;;18.15;62.38;99618.00;5030029;28;20765;-64
2023/10/12 03:36:13;;;;;;;9.30;4.28;;;;;;;18.18;62.37;99628.28;5017623;28;20260;-64
2023/10/12 03:38:43;;;;;;;8.70;4.00;;;;;;;18.17;62.64;99631.00;5030675;28;20252;-64
2023/10/12 03:44:11;;;;;;;11.98;5.07;;;;;;;18.18;62.41;99628.28;5027043;28;20198;-66
2023/10/12 03:46:45;;;;;;;8.25;4.35;;;;;;;18.17;62.55;99624.00;5025354;28;20292;-64
2023/10/12 03:49:24;;;;;;;9.80;4.40;;;;;;;18.17;62.52;99624.00;5027108;28;20559;-65
2023/10/12 03:51:57;;;;;;;9.02;4.88;;;;;;;18.17;62.71;99623.16;5029805;28;20210;-65
2023/10/12 03:54:30;;;;;;;12.18;4.00;;;;;;;18.16;62.64;99609.28;5034293;28;20666;-66
2023/10/12 03:57:06;;;;;;;9.98;4.40;;;;;;;18.15;62.72;99601.53;5024521;28;20207;-65
2023/10/12 03:59:44;;;;;;;10.25;4.43;;;;;;;18.12;62.82;99615.56;5028033;28;20647;-65
2023/10/12 04:02:15;;;;;;;7.13;4.60;;;;;;;18.12;62.69;99622.56;5027010;28;20202;-64
2023/10/12 04:04:59;;;;;;;7.10;4.43;;;;;;;18.10;62.71;99614.78;5030426;28;20252;-63
2023/10/12 04:07:39;;;;;;;6.72;4.10;;;;;;;18.12;62.64;99597.31;5022757;28;20225;-65
2023/10/12 04:10:41;;;;;;;8.55;4.78;;;;;;;18.11;62.89;99598.22;5024828;28;20685;-65
2023/10/12 04:13:07;;;;;;;11.70;4.43;;;;;;;18.10;62.65;99596.53;5027565;28;20203;-64
2023/10/12 04:16:09;;;;;;;9.10;4.28;;;;;;;18.09;62.71;99602.69;5031750;28;20199;-65
2023/10/12 04:18:32;;;;;;;7.45;4.22;;;;;;;18.10;62.78;99599.16;5029955;28;20203;-65
2023/10/12 04:20:59;;;;;;;10.63;4.47;;;;;;;18.10;62.45;99604.38;5033057;28;20234;-63
2023/10/12 04:23:48;;;;;;;9.52;4.47;;;;;;;18.10;62.48;99610.41;5032328;28;20229;-65
2023/10/12 04:26:37;;;;;;;8.20;4.20;;;;;;;18.13;62.32;99609.44;5031809;28;20198;-65
2023/10/12 04:29:13;;;;;;;4.88;3.67;;;;;;;18.16;62.17;99606.69;5032058;28;20222;-64
2023/10/12 04:31:49;;;;;;;12.05;3.90;;;;;;;18.16;61.99;99588.44;5033487;28;20249;-64
2023/10/12 04:34:26;;;;;;;8.18;4.18;;;;;;;18.17;61.85;99579.69;5033562;28;20678;-66
2023/10/12 04:37:07;;;;;;;10.45;4.15;;;;;;;18.14;62.29;99590.25;5029687;28;20248;-64
2023/10/12 04:39:37;;;;;;;10.98;4.53;;;;;;;18.14;62.26;99592.03;5031144;28;20599;-64
2023/10/12 04:42:12;;;;;;;6.70;4.20;;;;;;;18.08;62.55;99580.16;5030354;28;20213;-63
2023/10/12 04:44:43;;;;;;;8.55;4.30;;;;;;;18.03;62.81;99582.13;5034111;28;20240;-63
2023/10/12 04:47:12;;;;;;;10.82;4.55;;;;;;;17.97;63.20;99574.59;5023803;28;20229;-63
2023/10/12 04:49:57;;;;;;;6.78;4.53;;;;;;;17.94;63.36;99574.78;5030641;28;20792;-63
2023/10/12 04:52:32;;;;;;;12.68;4.53;;;;;;;17.90;63.69;99587.13;5031413;28;20787;-64
2023/10/12 04:55:19;;;;;;;8.80;4.13;;;;;;;17.84;63.97;99577.81;5028664;28;20723;-64
2023/10/12 04:58:09;;;;;;;10.05;4.00;;;;;;;17.82;64.08;99574.47;5020362;28;20206;-65
2023/10/12 05:00:59;;;;;;;9.15;4.88;;;;;;;17.78;64.37;99578.09;5030341;28;20209;-63
2023/10/12 05:03:33;;;;;;;14.30;4.93;;;;;;;17.76;64.38;99585.16;5024986;28;20297;-63
2023/10/12 05:06:04;;;;;;;9.65;4.82;;;;;;;17.76;64.14;99589.53;5030490;28;20267;-64
2023/10/12 05:08:36;;;;;;;10.02;4.55;;;;;;;17.72;64.63;99582.75;5031498;28;20214;-65
2023/10/12 05:11:08;;;;;;;6.90;4.40;;;;;;;17.75;64.50;99587.84;5029231;28;20730;-63
2023/10/12 05:13:43;;;;;;;11.98;4.75;;;;;;;17.74;64.44;99588.72;5033596;28;20658;-65
2023/10/12 05:16:15;;;;;;;13.02;4.65;;;;;;;17.70;64.44;99593.25;5030970;28;20215;-62
2023/10/12 05:18:43;;;;;;;8.23;3.85;;;;;;;17.72;64.84;99599.25;5039782;28;20242;-60
2023/10/12 05:21:11;;;;;;;7.30;3.85;;;;;;;17.72;64.69;99583.59;5026087;28;20241;-61
2023/10/12 05:23:39;;;;;;;10.02;4.82;;;;;;;17.73;64.71;99589.66;5029144;28;20203;-62
2023/10/12 05:26:10;;;;;;;10.15;4.78;;;;;;;17.73;64.61;99611.34;5032430;28;20195;-63
2023/10/12 05:29:18;;;;;;;10.27;4.72;;;;;;;17.73;64.07;99613.94;5032782;28;20237;-61
2023/10/12 05:32:05;;;;;;;7.20;3.88;;;;;;;17.78;64.26;99614.59;5029505;28;20566;-64
2023/10/12 05:34:44;;;;;;;7.60;4.43;;;;;;;17.81;63.96;99601.41;5029524;28;20626;-63
2023/10/12 05:37:26;;;;;;;9.30;4.25;;;;;;;17.84;64.06;99598.66;5029912;28;20202;-60
2023/10/12 05:39:55;;;;;;;7.43;4.25;;;;;;;17.85;64.02;99587.31;5032834;28;20598;-61
2023/10/12 05:42:23;;;;;;;8.07;3.67;;;;;;;17.86;63.72;99586.41;5032129;28;20236;-63
2023/10/12 05:44:53;;;;;;;8.60;4.70;;;;;;;17.88;63.65;99582.88;5033136;28;20206;-67
2023/10/12 05:47:28;;;;;;;7.30;4.57;;;;;;;17.89;63.68;99584.56;5030328;28;20249;-61
2023/10/12 05:49:58;;;;;;;8.95;4.35;;;;;;;17.90;63.32;99604.53;5032354;28;20222;-62
2023/10/12 05:52:26;;;;;;;12.68;4.63;;;;;;;17.93;63.26;99606.94;5031807;28;20720;-61
2023/10/12 05:54:58;;;;;;;7.07;4.25;;;;;;;17.96;63.47;99612.03;5031908;28;20210;-62
2023/10/12 05:57:29;;;;;;;10.48;4.28;;;;;;;17.96;63.10;99604.19;5024143;28;20588;-61
2023/10/12 06:00:01;;;;;;;6.60;4.25;;;;;;;17.99;63.00;99604.06;5030102;28;20207;-61
2023/10/12 06:02:32;;;;;;;11.73;4.53;;;;;;;17.97;63.13;99609.34;5031121;28;20649;-61
2023/10/12 06:05:01;;;;;;;11.35;4.57;;;;;;;18.02;63.06;99622.16;5035768;28;20199;-63
2023/10/12 06:07:29;;;;;;;11.80;4.30;;;;;;;18.00;63.14;99624.81;5028543;28;20674;-64
2023/10/12 06:09:57;;;;;;;12.40;4.53;;;;;;;18.01;62.86;99628.31;5024461;28;20277;-63
2023/10/12 06:12:29;;;;;;;9.23;4.47;;;;;;;18.03;62.85;99645.53;5026418;28;20303;-62
2023/10/12 06:14:57;;;;;;;11.40;4.40;;;;;;;18.06;62.92;99623.69;5030892;28;20198;-64
2023/10/12 06:17:30;;;;;;;6.38;3.63;;;;;;;18.07;62.66;99625.38;5030452;28;20602;-63
2023/10/12 06:20:10;;;;;;;8.35;4.88;;;;;;;18.08;62.49;99627.91;5025976;28;20589;-68
2023/10/12 06:22:39;;;;;;;9.35;4.10;;;;;;;18.15;62.35;99644.09;5025489;28;20882;-71
2023/10/12 06:25:11;;;;;;;8.32;5.03;;;;;;;18.17;62.18;99644.03;5029160;28;20547;-71
2023/10/12 06:27:39;;;;;;;8.57;4.68;;;;;;;18.19;62.44;99645.66;5026599;28;20214;-70
2023/10/12 06:30:17;;;;;;;10.10;4.53;;;;;;;18.22;62.20;99655.06;5031532;28;20296;-70
2023/10/12 06:32:47;;;;;;;6.68;3.83;;;;;;;18.25;62.03;99641.88;5025788;28;20236;-69
2023/10/12 06:35:26;;;;;;;9.68;4.18;;;;;;;18.26;62.11;99646.16;5031974;28;20199;-69
2023/10/12 06:40:48;;;;;;;10.27;4.40;;;;;;;18.27;62.10;99659.16;5032446;28;20202;-70
2023/10/12 06:46:03;;;;;;;9.65;4.43;;;;;;;18.28;61.90;99655.63;5030779;28;20214;-69
2023/10/12 06:51:28;;;;;;;13.15;4.82;;;;;;;18.27;61.74;99664.38;5018066;28;20293;-67
2023/10/12 06:54:17;;;;;;;7.13;4.35;;;;;;;18.27;61.33;99658.31;5026171;28;20253;-69
2023/10/12 06:56:50;;;;;;;8.48;4.03;;;;;;;18.28;61.50;99667.81;5027247;28;20210;-69
2023/10/12 06:59:21;;;;;;;8.98;4.68;;;;;;;18.29;61.48;99677.31;5029893;28;20256;-70
2023/10/12 07:01:53;;;;;;;11.23;4.47;;;;;;;18.29;61.48;99675.53;5029826;28;20209;-72
2023/10/12 07:04:27;;;;;;;9.27;3.70;;;;;;;18.31;61.21;99681.53;5031204;28;20199;-69
2023/10/12 07:06:59;;;;;;;10.18;4.65;;;;;;;18.35;61.17;99690.06;5029813;28;20256;-72
2023/10/12 07:09:38;;;;;;;10.02;4.35;;;;;;;18.37;60.92;99689.97;5030346;28;20207;-71
2023/10/12 07:12:10;;;;;;;9.05;4.32;;;;;;;18.34;60.78;99688.38;5029132;28;20198;-70
2023/10/12 07:14:46;;;;;;;9.57;4.47;;;;;;;18.35;60.99;99690.06;5027685;28;20203;-73
2023/10/12 07:17:15;;;;;;;12.00;4.43;;;;;;;18.35;60.81;99683.09;5026764;28;20305;-68
2023/10/12 07:19:49;;;;;;;8.27;3.90;;;;;;;18.34;60.61;99704.03;5030820;28;20203;-71
2023/10/12 07:22:19;;;;;;;6.63;3.70;;;;;;;18.29;60.88;99693.81;5031249;28;20646;-70
2023/10/12 07:24:52;;;;;;;11.35;3.95;;;;;;;18.28;60.96;99694.72;5031346;28;20747;-71
2023/10/12 07:27:24;;;;;;;15.70;4.70;;;;;;;18.34;60.64;99688.38;5027591;28;20230;-68
2023/10/12 07:30:08;;;;;;;11.80;4.68;;;;;;;18.35;60.52;99703.94;5028577;28;20735;-65
2023/10/12 07:32:44;;;;;;;11.70;5.13;;;;;;;18.38;60.42;99692.53;5030700;28;20245;-66
2023/10/12 07:35:17;;;;;;;13.38;4.22;;;;;;;18.38;60.36;99682.09;5028138;28;20206;-66
2023/10/12 07:37:47;;;;;;;10.68;4.80;;;;;;;18.40;60.41;99705.47;5029789;28;20202;-65
2023/10/12 07:40:19;;;;;;;10.25;4.72;;;;;;;18.42;60.36;99683.63;5030467;28;20268;-65
2023/10/12 07:42:52;;;;;;;8.25;4.40;;;;;;;18.40;60.55;99695.03;5028641;28;20681;-65
2023/10/12 07:45:27;;;;;;;9.90;4.18;;;;;;;18.36;60.56;99694.34;5026384;28;20230;-65
2023/10/12 07:47:59;;;;;;;6.43;3.55;;;;;;;18.34;60.70;99704.88;5028012;28;20238;-66
2023/10/12 07:50:30;;;;;;;8.32;4.13;;;;;;;18.32;60.74;99701.50;5026902;28;20218;-65
2023/10/12 07:53:14;;;;;;;7.50;4.30;;;;;;;18.27;60.66;99684.38;5029049;28;20250;-66
2023/10/12 07:55:43;;;;;;;10.55;4.40;;;;;;;18.28;61.15;99696.50;5027418;28;20225;-66
2023/10/12 07:58:12;;;;;;;8.77;4.53;;;;;;;18.28;61.40;99692.13;5034752;28;20244;-65
2023/10/12 08:00:51;;;;;;;11.75;4.47;;;;;;;18.26;61.63;99711.38;5031088;28;20225;-65
2023/10/12 08:03:25;;;;;;;10.32;3.95;;;;;;;18.24;61.65;99729.72;5028672;28;20611;-64
2023/10/12 08:06:08;;;;;;;10.45;4.63;;;;;;;18.24;61.95;99727.09;5028746;28;20203;-65
2023/10/12 08:08:37;;;;;;;10.82;4.38;;;;;;;18.25;61.59;99730.56;5027151;28;20198;-65
2023/10/12 08:11:28;;;;;;;9.18;4.57;;;;;;;18.31;61.76;99730.25;5031382;28;20214;-65
2023/10/12 08:13:58;;;;;;;9.32;4.53;;;;;;;18.32;61.47;99740.59;5031789;28;20681;-66
2023/10/12 08:16:40;;;;;;;12.43;5.30;;;;;;;18.34;62.02;99746.63;5029268;28;20202;-65
2023/10/12 08:19:28;;;;;;;6.85;4.38;;;;;;;18.33;62.27;99752.72;5031899;28;20206;-65
2023/10/12 08:22:00;;;;;;;9.25;4.68;;;;;;;18.32;62.34;99743.22;5029526;28;20198;-64
2023/10/12 08:24:35;;;;;;;9.93;4.80;;;;;;;18.30;62.45;99752.91;5032057;28;20654;-67
2023/10/12 08:27:06;;;;;;;10.77;4.82;;;;;;;18.34;62.14;99757.03;5024636;28;20206;-65
2023/10/12 08:32:33;;;;;;;11.60;4.07;;;;;;;18.43;62.13;99736.63;5043758;28;20211;-65
2023/10/12 08:40:40;;;;;;;11.50;4.45;;;;;;;18.61;60.57;99746.19;5028377;28;20199;-64
2023/10/12 08:43:09;;;;;;;11.00;4.47;;;;;;;18.69;61.02;99748.41;5029625;28;20237;-65
2023/10/12 08:45:38;;;;;;;8.52;3.97;;;;;;;18.80;60.56;99736.53;5028897;28;20665;-65
2023/10/12 08:48:09;;;;;;;13.05;4.82;;;;;;;18.86;60.10;99734.56;5028541;28;20623;-66
2023/10/12 08:50:49;;;;;;;9.18;4.10;;;;;;;18.95;59.97;99734.06;5024626;28;20206;-64
2023/10/12 08:53:23;;;;;;;10.75;4.18;;;;;;;19.03;59.91;99742.34;5024905;28;20257;-64
2023/10/12 08:55:53;;;;;;;9.27;4.22;;;;;;;19.03;59.26;99744.97;5029553;28;20290;-63
2023/10/12 08:58:42;;;;;;;5.45;3.90;;;;;;;19.01;58.92;99755.50;5028388;28;20207;-65
2023/10/12 09:01:10;;;;;;;10.55;4.57;;;;;;;19.02;59.42;99756.34;5029017;28;20203;-65
2023/10/12 09:03:44;;;;;;;8.77;3.95;;;;;;;19.04;59.47;99775.41;5030042;28;20203;-66
2023/10/12 09:06:29;;;;;;;12.98;4.00;;;;;;;19.11;59.46;99778.50;5028539;28;20575;-65
2023/10/12 09:08:58;;;;;;;16.48;3.83;;;;;;;19.14;58.96;99773.13;5026901;28;20676;-64
2023/10/12 09:11:33;;;;;;;9.05;4.00;;;;;;;19.14;58.58;99773.97;5028810;28;20728;-64
2023/10/12 09:14:11;;;;;;;11.82;4.20;;;;;;;19.11;58.80;99792.44;5028696;28;20669;-64
2023/10/12 09:16:40;;;;;;;9.32;4.00;;;;;;;19.13;59.01;99794.97;5027367;28;20233;-65
2023/10/12 09:19:23;;;;;;;14.68;4.80;;;;;;;19.20;58.54;99778.91;5033978;28;20202;-67
2023/10/12 09:21:59;;;;;;;11.75;3.97;;;;;;;19.33;57.25;99791.31;5027597;28;20202;-63
2023/10/12 09:24:35;;;;;;;9.75;3.42;;;;;;;19.37;57.22;99780.66;5027317;28;20203;-66
2023/10/12 09:27:13;;;;;;;8.65;3.83;;;;;;;19.36;57.22;99781.56;5028655;28;20677;-64
2023/10/12 09:29:57;;;;;;;7.45;3.83;;;;;;;19.30;57.42;99782.72;5027945;28;20264;-64
2023/10/12 09:32:27;;;;;;;12.57;4.32;;;;;;;19.19;57.65;99777.22;5026256;28;20218;-63
2023/10/12 09:35:11;;;;;;;7.32;3.55;;;;;;;19.23;57.16;99783.13;5024484;28;20199;-65
2023/10/12 09:37:51;;;;;;;9.30;3.70;;;;;;;19.25;57.46;99789.09;5027143;28;20203;-65
2023/10/12 09:40:29;;;;;;;11.18;3.83;;;;;;;19.26;57.42;99802.09;5024788;28;20653;-64
2023/10/12 09:43:06;;;;;;;11.93;3.72;;;;;;;19.21;57.07;99816.31;5022388;28;20199;-64
2023/10/12 09:45:41;;;;;;;8.00;4.00;;;;;;;19.12;57.62;99820.25;5027059;28;20257;-64
2023/10/12 09:48:18;;;;;;;9.48;3.53;;;;;;;19.04;57.64;99817.19;5032046;28;20288;-62
2023/10/12 09:50:51;;;;;;;10.68;4.18;;;;;;;18.92;57.93;99823.00;5025570;28;20233;-65
2023/10/12 09:53:27;;;;;;;11.30;3.70;;;;;;;18.79;58.22;99838.44;5031523;28;20238;-61
2023/10/12 09:56:11;;;;;;;8.32;3.60;;;;;;;18.63;58.92;99842.66;5028085;28;20208;-61
2023/10/12 09:58:51;;;;;;;10.10;3.47;;;;;;;18.59;59.03;99847.16;5025274;28;20241;-64
2023/10/12 10:01:45;;;;;;;4.28;3.15;;;;;;;18.58;59.09;99861.13;5027771;28;20256;-60
2023/10/12 10:04:28;;;;;;;7.60;3.70;;;;;;;18.56;59.26;99855.16;5028466;28;20757;-65
2023/10/12 10:07:15;;;;;;;6.22;3.55;;;;;;;18.53;60.26;99865.75;5022887;28;20707;-62
2023/10/12 10:09:47;;;;;;;6.05;4.00;;;;;;;18.49;60.34;99857.22;5028445;28;20206;-62
2023/10/12 10:12:17;;;;;;;7.35;3.90;;;;;;;18.43;61.70;99856.66;5026098;28;20242;-62
2023/10/12 10:14:52;;;;;;;9.80;3.92;;;;;;;18.40;62.17;99854.19;5028519;28;20618;-62
2023/10/12 10:17:23;;;;;;;10.10;3.90;;;;;;;18.35;63.64;99870.91;5028079;28;20206;-62
2023/10/12 10:20:33;;;;;;;10.90;5.25;;;;;;;18.28;64.13;99887.75;5031508;28;20692;-63
2023/10/12 10:22:58;;;;;;;10.65;3.75;;;;;;;18.25;63.77;99877.44;5028046;28;20202;-63
2023/10/12 10:25:33;;;;;;;6.20;3.83;;;;;;;18.26;63.83;99880.91;5026068;28;20229;-63
2023/10/12 10:28:08;;;;;;;7.60;3.67;;;;;;;18.24;63.98;99875.75;5028315;28;20214;-63
2023/10/12 10:30:42;;;;;;;8.80;4.20;;;;;;;18.20;64.02;99873.38;5029636;28;20548;-61
2023/10/12 10:33:13;;;;;;;6.78;3.90;;;;;;;18.16;64.53;99883.09;5028784;28;20232;-62
2023/10/12 10:36:10;;;;;;;11.23;4.72;;;;;;;18.12;64.91;99872.88;5030845;28;20579;-63
2023/10/12 10:38:49;;;;;;;6.70;4.05;;;;;;;18.07;65.54;99888.72;5015015;28;20214;-62
2023/10/12 10:41:22;;;;;;;9.98;4.32;;;;;;;18.10;65.78;99897.25;5022926;28;20211;-64
2023/10/12 10:43:52;;;;;;;7.10;4.38;;;;;;;18.05;66.52;99895.78;5029370;28;20712;-64
2023/10/12 10:46:26;;;;;;;7.85;4.07;;;;;;;18.03;66.76;99900.19;5027952;28;20198;-64
2023/10/12 10:48:56;;;;;;;7.32;4.07;;;;;;;18.03;67.71;99906.25;5030382;28;20206;-64
2023/10/12 10:51:47;;;;;;;8.05;4.32;;;;;;;18.03;67.81;99884.56;5027514;28;20234;-67
2023/10/12 10:54:21;;;;;;;11.07;4.65;;;;;;;17.96;68.24;99883.97;5027014;28;20238;-63
2023/10/12 10:56:53;;;;;;;8.98;4.90;;;;;;;17.83;69.51;99886.28;5025967;28;20232;-61
2023/10/12 10:59:21;;;;;;;7.20;4.57;;;;;;;17.73;70.45;99887.56;5029609;28;20347;-65
2023/10/12 11:01:49;;;;;;;7.60;4.65;;;;;;;17.67;71.00;99885.22;5029727;28;20202;-66
2023/10/12 11:07:06;;;;;;;7.43;3.85;;;;;;;17.46;71.92;99873.13;5028530;28;20248;-66
2023/10/12 11:10:03;;;;;;;10.45;5.03;;;;;;;17.34;72.63;99879.69;5029433;28;20609;-65
2023/10/12 11:12:31;;;;;;;10.40;4.70;;;;;;;17.22;73.34;99896.69;5025886;28;20300;-65
2023/10/12 11:15:00;;;;;;;11.55;4.32;;;;;;;17.09;74.38;99911.13;5029410;28;20573;-64
2023/10/12 11:17:35;;;;;;;7.93;4.20;;;;;;;17.01;74.94;99913.16;5030674;28;20211;-65
2023/10/12 11:20:08;;;;;;;7.55;4.05;;;;;;;16.96;75.25;99917.72;5029670;28;20542;-65
2023/10/12 11:22:37;;;;;;;11.27;4.30;;;;;;;16.88;75.68;99912.81;5026630;28;20613;-66
2023/10/12 11:25:12;;;;;;;4.93;3.63;;;;;;;16.85;76.40;99902.53;5025728;28;20638;-65
2023/10/12 11:27:41;;;;;;;8.10;4.68;;;;;;;16.83;76.50;99891.34;5029156;28;20206;-64
2023/10/12 11:30:18;;;;;;;9.23;4.50;;;;;;;16.87;76.72;99891.16;5029360;28;20198;-64
2023/10/12 11:32:55;;;;;;;9.43;5.07;;;;;;;16.96;76.54;99891.69;5030704;28;20210;-63
2023/10/12 11:35:34;;;;;;;8.98;5.15;;;;;;;16.97;76.41;99896.81;5023293;28;20212;-65
2023/10/12 11:38:02;;;;;;;11.75;4.38;;;;;;;16.95;76.63;99903.00;5024475;28;20202;-65
2023/10/12 11:40:31;;;;;;;20.42;5.05;;;;;;;16.86;77.00;99907.69;5018038;28;20649;-64
2023/10/12 11:42:59;;;;;;;12.50;4.63;;;;;;;16.85;77.40;99912.94;5030530;28;20679;-65
2023/10/12 11:45:33;;;;;;;10.52;4.97;;;;;;;16.86;77.71;99894.69;5029303;28;20234;-64
2023/10/12 11:48:21;;;;;;;10.57;5.20;;;;;;;16.86;77.57;99889.47;5028668;28;20210;-65
2023/10/12 11:50:50;;;;;;;9.82;5.78;;;;;;;16.82;78.05;99885.28;5031257;28;20206;-65
2023/10/12 11:53:19;;;;;;;9.18;5.93;;;;;;;16.76;77.55;99882.09;5026746;28;20244;-64
2023/10/12 11:55:48;;;;;;;12.27;6.20;;;;;;;16.74;78.19;99889.94;5028627;28;20203;-64
2023/10/12 11:58:19;;;;;;;12.25;5.47;;;;;;;16.76;77.78;99876.88;5021786;28;20300;-65
2023/10/12 12:00:48;;;;;;;8.75;5.20;;;;;;;16.78;77.45;99880.25;5025643;28;20217;-66
2023/10/12 12:03:17;;;;;;;11.18;4.43;;;;;;;16.81;77.30;99885.34;5025445;28;20654;-65
2023/10/12 12:05:50;;;;;;;12.20;4.65;;;;;;;16.76;76.78;99890.72;5027470;28;20221;-65
2023/10/12 12:08:19;;;;;;;10.70;5.22;;;;;;;16.79;76.72;99897.56;5026554;28;20769;-63
2023/10/12 12:10:54;;;;;;;6.30;4.65;;;;;;;16.75;76.67;99890.78;5025146;28;20317;-65
2023/10/12 12:13:23;;;;;;;10.35;5.13;;;;;;;16.71;77.27;99902.19;5031322;28;20650;-65
2023/10/12 12:15:55;;;;;;;6.32;4.10;;;;;;;16.72;76.83;99891.72;5026819;28;20229;-65
2023/10/12 12:18:23;;;;;;;8.43;4.22;;;;;;;16.65;76.34;99885.91;5029936;28;20775;-65
2023/10/12 12:20:56;;;;;;;7.05;4.45;;;;;;;16.60;77.18;99881.78;5029960;28;20615;-65
2023/10/12 12:23:27;;;;;;;3.78;3.22;;;;;;;16.56;76.23;99886.25;5031717;28;20202;-65
2023/10/12 12:26:00;;;;;;;11.90;4.15;;;;;;;16.49;77.47;99894.34;5030001;28;20206;-64
2023/10/12 12:28:32;;;;;;;6.05;4.00;;;;;;;16.43;77.37;99896.31;5031520;28;20252;-65